createdAt,value
2023-05-13T00:00:46.722Z,6.43
2023-05-13T00:03:13.201Z,6.63
2023-05-13T00:05:40.404Z,5.70
2023-05-13T00:08:07.498Z,6.53
2023-05-13T00:10:34.613Z,5.75
2023-05-13T00:13:01.560Z,5.80
2023-05-13T00:15:28.732Z,5.37
2023-05-13T00:17:55.219Z,6.07
2023-05-13T00:20:21.915Z,5.90
2023-05-13T00:22:48.820Z,5.45
2023-05-13T00:25:15.523Z,5.93
2023-05-13T00:27:43.005Z,5.70
2023-05-13T00:30:14.098Z,6.63
2023-05-13T00:32:42.028Z,6.10
2023-05-13T00:35:08.990Z,5.80
2023-05-13T00:37:35.848Z,5.90
2023-05-13T00:40:02.317Z,6.50
2023-05-13T00:42:28.817Z,6.07
2023-05-13T00:44:55.269Z,5.87
2023-05-13T00:47:22.263Z,5.80
2023-05-13T00:49:48.794Z,6.20
2023-05-13T00:52:15.207Z,5.28
2023-05-13T00:54:41.633Z,5.38
2023-05-13T00:57:08.192Z,5.60
2023-05-13T00:59:34.676Z,5.73
2023-05-13T01:02:14.701Z,5.22
2023-05-13T01:04:47.666Z,5.53
2023-05-13T01:07:45.052Z,5.45
2023-05-13T01:10:23.419Z,5.30
2023-05-13T01:12:54.032Z,5.17
2023-05-13T01:15:25.501Z,5.03
2023-05-13T01:18:09.868Z,5.23
2023-05-13T01:20:38.311Z,5.83
2023-05-13T01:23:06.262Z,5.43
2023-05-13T01:25:32.793Z,5.47
2023-05-13T01:27:59.558Z,5.88
2023-05-13T01:30:26.693Z,5.53
2023-05-13T01:32:53.623Z,5.43
2023-05-13T01:35:21.119Z,5.20
2023-05-13T01:37:48.866Z,5.65
2023-05-13T01:40:31.223Z,5.87
2023-05-13T01:42:59.447Z,5.00
2023-05-13T01:45:28.658Z,5.47
2023-05-13T01:47:55.395Z,5.93
2023-05-13T01:50:22.344Z,5.97
2023-05-13T01:52:49.009Z,5.93
2023-05-13T01:55:15.934Z,6.23
2023-05-13T02:00:38.639Z,5.45
2023-05-13T02:03:06.376Z,5.50
2023-05-13T02:05:33.465Z,5.70
2023-05-13T02:08:00.187Z,6.13
2023-05-13T02:10:26.895Z,6.40
2023-05-13T02:12:53.599Z,5.63
2023-05-13T02:15:20.390Z,6.00
2023-05-13T02:17:47.576Z,5.80
2023-05-13T02:20:15.129Z,4.83
2023-05-13T02:22:42.438Z,5.20
2023-05-13T02:25:09.853Z,5.50
2023-05-13T02:27:37.209Z,5.63
2023-05-13T02:30:04.602Z,5.73
2023-05-13T02:32:31.847Z,4.97
2023-05-13T02:34:58.752Z,5.57
2023-05-13T02:37:26.855Z,5.43
2023-05-13T02:39:53.914Z,5.57
2023-05-13T02:42:21.100Z,5.47
2023-05-13T02:44:48.561Z,6.30
2023-05-13T02:47:15.296Z,5.90
2023-05-13T02:49:42.330Z,4.80
2023-05-13T02:52:09.078Z,5.13
2023-05-13T02:54:35.552Z,5.20
2023-05-13T02:57:02.186Z,5.45
2023-05-13T02:59:28.700Z,4.70
2023-05-13T03:01:55.213Z,5.50
2023-05-13T03:04:22.126Z,5.23
2023-05-13T03:06:49.587Z,5.60
2023-05-13T03:09:16.771Z,5.73
2023-05-13T03:11:43.252Z,5.27
2023-05-13T03:14:09.900Z,5.53
2023-05-13T03:16:36.693Z,5.57
2023-05-13T03:19:03.651Z,5.60
2023-05-13T03:21:30.209Z,5.33
2023-05-13T03:23:56.727Z,5.20
2023-05-13T03:26:23.826Z,5.60
2023-05-13T03:28:50.313Z,5.17
2023-05-13T03:31:16.828Z,6.00
2023-05-13T03:33:43.623Z,5.60
2023-05-13T03:36:10.353Z,5.40
2023-05-13T03:38:36.984Z,5.37
2023-05-13T03:41:03.705Z,5.63
2023-05-13T03:43:31.242Z,5.60
2023-05-13T03:45:57.838Z,5.47
2023-05-13T03:48:24.376Z,5.20
2023-05-13T03:50:53.035Z,4.83
2023-05-13T03:53:19.765Z,5.55
2023-05-13T03:55:46.387Z,5.10
2023-05-13T03:58:17.119Z,5.27
2023-05-13T04:00:46.738Z,4.77
2023-05-13T04:03:14.399Z,5.00
2023-05-13T04:05:41.020Z,4.90
2023-05-13T04:08:07.905Z,5.47
2023-05-13T04:10:34.499Z,4.87
2023-05-13T04:13:01.061Z,5.30
2023-05-13T04:15:27.694Z,4.90
2023-05-13T04:17:54.616Z,5.20
2023-05-13T04:20:21.324Z,4.70
2023-05-13T04:22:48.704Z,5.23
2023-05-13T04:25:15.721Z,5.10
2023-05-13T04:27:42.432Z,4.85
2023-05-13T04:30:09.748Z,5.07
2023-05-13T04:32:37.052Z,4.60
2023-05-13T04:35:03.937Z,4.83
2023-05-13T04:37:31.509Z,4.60
2023-05-13T04:40:00.871Z,4.60
2023-05-13T04:42:27.509Z,4.70
2023-05-13T04:44:54.254Z,4.03
2023-05-13T04:47:20.840Z,4.63
2023-05-13T04:49:48.725Z,4.80
2023-05-13T04:52:15.874Z,3.93
2023-05-13T04:54:42.730Z,4.30
2023-05-13T04:57:09.287Z,4.40
2023-05-13T04:59:35.898Z,4.60
2023-05-13T05:02:02.552Z,4.20
2023-05-13T05:04:29.273Z,4.00
2023-05-13T05:06:55.891Z,3.70
2023-05-13T05:09:23.446Z,4.17
2023-05-13T05:11:50.760Z,4.60
2023-05-13T05:14:17.597Z,4.10
2023-05-13T05:16:44.453Z,3.90
2023-05-13T05:19:11.112Z,4.03
2023-05-13T05:21:38.106Z,4.15
2023-05-13T05:24:05.940Z,3.67
2023-05-13T05:26:32.379Z,3.70
2023-05-13T05:28:58.922Z,3.75
2023-05-13T05:31:27.639Z,4.40
2023-05-13T05:33:54.339Z,4.35
2023-05-13T05:36:20.818Z,4.20
2023-05-13T05:38:47.449Z,4.07
2023-05-13T05:41:13.950Z,3.65
2023-05-13T05:43:40.481Z,3.28
2023-05-13T05:46:07.608Z,3.45
2023-05-13T05:48:34.878Z,3.40
2023-05-13T05:51:02.214Z,3.20
2023-05-13T05:53:28.919Z,3.55
2023-05-13T05:55:56.382Z,3.67
2023-05-13T05:58:23.130Z,3.30
2023-05-13T06:00:49.661Z,3.65
2023-05-13T06:03:16.277Z,3.45
2023-05-13T06:05:43.050Z,3.40
2023-05-13T06:08:09.732Z,3.58
2023-05-13T06:10:36.375Z,3.13
2023-05-13T06:13:03.025Z,3.30
2023-05-13T06:15:29.758Z,3.30
2023-05-13T06:17:57.048Z,2.90
2023-05-13T06:20:24.074Z,3.08
2023-05-13T06:22:50.759Z,2.88
2023-05-13T06:25:18.422Z,3.20
2023-05-13T06:27:45.013Z,3.00
2023-05-13T06:30:11.718Z,3.33
2023-05-13T06:32:41.003Z,2.75
2023-05-13T06:35:14.136Z,2.95
2023-05-13T06:37:40.860Z,2.95
2023-05-13T06:40:08.069Z,2.95
2023-05-13T06:42:39.711Z,2.78
2023-05-13T06:45:08.215Z,2.95
2023-05-13T06:47:35.542Z,2.90
2023-05-13T06:50:03.360Z,2.65
2023-05-13T06:52:31.568Z,2.55
2023-05-13T06:54:59.911Z,2.50
2023-05-13T06:57:38.841Z,2.45
2023-05-13T07:00:09.254Z,2.58
2023-05-13T07:02:36.355Z,2.50
2023-05-13T07:05:03.250Z,2.20
2023-05-13T07:07:29.888Z,2.15
2023-05-13T07:09:56.540Z,2.13
2023-05-13T07:12:23.188Z,1.92
2023-05-13T07:14:49.920Z,2.28
2023-05-13T07:17:17.471Z,1.65
2023-05-13T07:19:45.119Z,2.22
2023-05-13T07:22:12.041Z,2.00
2023-05-13T07:24:38.830Z,1.80
2023-05-13T07:27:05.649Z,1.60
2023-05-13T07:29:33.602Z,2.00
2023-05-13T07:32:04.846Z,2.00
2023-05-13T07:34:31.365Z,1.80
2023-05-13T07:36:58.575Z,1.63
2023-05-13T07:39:25.487Z,1.88
2023-05-13T07:41:52.135Z,1.52
2023-05-13T07:44:19.364Z,2.10
2023-05-13T07:46:46.020Z,1.90
2023-05-13T07:49:12.589Z,1.88
2023-05-13T07:51:39.670Z,1.80
2023-05-13T07:54:06.153Z,2.00
2023-05-13T07:56:32.905Z,1.95
2023-05-13T07:59:00.594Z,2.08
2023-05-13T08:01:27.312Z,2.03
2023-05-13T08:03:54.004Z,1.77
2023-05-13T08:06:20.781Z,2.03
2023-05-13T08:08:47.385Z,1.90
2023-05-13T08:11:13.912Z,1.80
2023-05-13T08:13:40.540Z,2.17
2023-05-13T08:16:07.477Z,2.10
2023-05-13T08:18:34.151Z,2.00
2023-05-13T08:21:00.816Z,2.08
2023-05-13T08:23:40.390Z,2.10
2023-05-13T08:26:10.575Z,1.80
2023-05-13T08:28:38.065Z,1.90
2023-05-13T08:31:04.991Z,2.08
2023-05-13T08:33:32.560Z,1.88
2023-05-13T08:36:00.896Z,2.10
2023-05-13T08:38:27.481Z,2.00
2023-05-13T08:40:54.222Z,2.42
2023-05-13T08:43:23.954Z,2.05
2023-05-13T08:45:53.524Z,2.15
2023-05-13T08:48:20.495Z,1.90
2023-05-13T08:50:48.664Z,2.28
2023-05-13T08:53:16.998Z,2.10
2023-05-13T08:55:43.639Z,2.00
2023-05-13T08:58:10.230Z,2.10
2023-05-13T09:00:36.911Z,2.40
2023-05-13T09:03:03.720Z,2.15
2023-05-13T09:05:31.995Z,2.25
2023-05-13T09:07:58.926Z,2.28
2023-05-13T09:10:25.433Z,2.03
2023-05-13T09:12:55.478Z,2.03
2023-05-13T09:15:24.710Z,2.20
2023-05-13T09:17:55.174Z,2.03
2023-05-13T09:20:22.953Z,2.05
2023-05-13T09:23:10.592Z,2.17
2023-05-13T09:25:38.579Z,2.60
2023-05-13T09:28:06.578Z,2.17
2023-05-13T09:30:40.144Z,2.10
2023-05-13T09:33:13.898Z,2.17
2023-05-13T09:35:42.462Z,2.58
2023-05-13T09:38:14.950Z,2.10
2023-05-13T09:40:42.296Z,2.90
2023-05-13T09:43:09.189Z,2.35
2023-05-13T09:45:36.203Z,2.53
2023-05-13T09:48:03.398Z,2.40
2023-05-13T09:50:31.411Z,2.75
2023-05-13T09:52:57.962Z,2.42
2023-05-13T09:55:24.512Z,2.28
2023-05-13T09:57:53.214Z,2.40
2023-05-13T10:00:31.730Z,2.00
2023-05-13T10:03:01.128Z,2.10
2023-05-13T10:05:27.819Z,2.10
2023-05-13T10:07:55.298Z,2.30
2023-05-13T10:10:22.149Z,2.08
2023-05-13T10:12:49.538Z,2.40
2023-05-13T10:15:16.606Z,2.28
2023-05-13T10:17:44.866Z,2.03
2023-05-13T10:20:12.102Z,2.70
2023-05-13T10:22:39.125Z,2.40
2023-05-13T10:25:06.467Z,2.45
2023-05-13T10:27:33.925Z,2.70
2023-05-13T10:30:03.510Z,2.55
2023-05-13T10:32:31.171Z,2.22
2023-05-13T10:35:03.158Z,2.53
2023-05-13T10:38:01.798Z,2.50
2023-05-13T10:40:47.317Z,2.53
2023-05-13T10:43:22.007Z,2.17
2023-05-13T10:45:50.351Z,2.53
2023-05-13T10:48:18.599Z,2.40
2023-05-13T10:50:56.867Z,2.50
2023-05-13T10:53:25.809Z,2.90
2023-05-13T10:55:54.317Z,2.60
2023-05-13T10:58:22.560Z,2.47
2023-05-13T11:01:02.365Z,2.40
2023-05-13T11:03:30.043Z,2.67
2023-05-13T11:06:17.709Z,2.53
2023-05-13T11:08:49.881Z,2.53
2023-05-13T11:11:22.737Z,2.58
2023-05-13T11:13:53.785Z,2.78
2023-05-13T11:16:21.163Z,2.67
2023-05-13T11:18:47.891Z,2.30
2023-05-13T11:21:14.720Z,2.50
2023-05-13T11:23:52.115Z,2.88
2023-05-13T11:26:20.146Z,2.92
2023-05-13T11:28:58.230Z,2.38
2023-05-13T11:31:26.985Z,2.03
2023-05-13T11:34:07.178Z,2.40
2023-05-13T11:36:35.133Z,2.25
2023-05-13T11:39:13.789Z,2.65
2023-05-13T11:41:42.862Z,2.55
2023-05-13T11:44:11.203Z,2.60
2023-05-13T11:46:37.823Z,2.58
2023-05-13T11:49:07.094Z,2.67
2023-05-13T11:51:34.062Z,2.30
2023-05-13T11:54:04.023Z,2.47
2023-05-13T11:56:30.961Z,2.17
2023-05-13T11:59:14.513Z,2.83
2023-05-13T12:01:41.400Z,3.08
2023-05-13T12:04:08.589Z,2.75
2023-05-13T12:06:36.222Z,2.55
2023-05-13T12:09:07.113Z,2.55
2023-05-13T12:11:33.817Z,2.20
2023-05-13T12:14:00.750Z,2.00
2023-05-13T12:16:28.751Z,1.58
2023-05-13T12:19:06.374Z,1.80
2023-05-13T12:21:34.463Z,1.80
2023-05-13T12:24:01.094Z,1.60
2023-05-13T12:26:27.619Z,1.77
2023-05-13T12:29:00.396Z,1.55
2023-05-13T12:31:27.452Z,1.88
2023-05-13T12:33:54.043Z,1.80
2023-05-13T12:36:26.155Z,1.67
2023-05-13T12:39:00.945Z,1.70
2023-05-13T12:41:30.683Z,1.77
2023-05-13T12:44:08.303Z,1.88
2023-05-13T12:46:35.283Z,1.60
2023-05-13T12:49:04.094Z,1.95
2023-05-13T12:51:30.805Z,1.70
2023-05-13T12:53:59.349Z,1.85
2023-05-13T12:56:29.161Z,1.60
2023-05-13T12:58:55.895Z,1.77
2023-05-13T13:01:22.968Z,1.85
2023-05-13T13:03:50.163Z,1.70
2023-05-13T13:06:17.395Z,1.95
2023-05-13T13:08:43.837Z,1.85
2023-05-13T13:11:10.733Z,1.80
2023-05-13T13:13:39.217Z,1.70
2023-05-13T13:16:06.431Z,2.00
2023-05-13T13:18:33.105Z,2.00
2023-05-13T13:20:59.721Z,2.00
2023-05-13T13:23:26.472Z,2.03
2023-05-13T13:25:53.021Z,2.05
2023-05-13T13:28:19.635Z,2.10
2023-05-13T13:30:47.354Z,2.35
2023-05-13T13:33:15.641Z,1.77
2023-05-13T13:35:47.143Z,1.80
2023-05-13T13:38:14.209Z,2.00
2023-05-13T13:40:40.963Z,1.85
2023-05-13T13:43:07.703Z,1.73
2023-05-13T13:45:34.886Z,1.80
2023-05-13T13:48:01.615Z,2.00
2023-05-13T13:50:28.497Z,2.20
2023-05-13T13:52:55.156Z,2.20
2023-05-13T13:55:23.574Z,2.28
2023-05-13T13:57:50.791Z,1.88
2023-05-13T14:00:17.960Z,2.10
2023-05-13T14:02:45.006Z,1.85
2023-05-13T14:05:12.747Z,2.20
2023-05-13T14:07:39.502Z,2.08
2023-05-13T14:10:06.937Z,2.28
2023-05-13T14:12:35.726Z,2.47
2023-05-13T14:15:02.882Z,2.42
2023-05-13T14:17:29.663Z,2.75
2023-05-13T14:19:56.182Z,2.42
2023-05-13T14:22:24.237Z,2.30
2023-05-13T14:24:54.118Z,2.30
2023-05-13T14:27:21.625Z,2.35
2023-05-13T14:29:48.862Z,2.55
2023-05-13T14:32:15.473Z,2.40
2023-05-13T14:34:42.498Z,1.95
2023-05-13T14:37:09.140Z,1.95
2023-05-13T14:39:35.913Z,2.38
2023-05-13T14:42:04.550Z,2.17
2023-05-13T14:44:32.412Z,2.40
2023-05-13T14:46:59.084Z,2.42
2023-05-13T14:49:26.793Z,2.53
2023-05-13T14:51:54.013Z,2.78
2023-05-13T14:54:21.218Z,2.63
2023-05-13T14:56:47.771Z,2.30
2023-05-13T14:59:14.996Z,2.75
2023-05-13T15:01:42.135Z,2.22
2023-05-13T15:04:08.731Z,2.38
2023-05-13T15:06:37.115Z,2.33
2023-05-13T15:09:03.837Z,2.50
2023-05-13T15:11:30.458Z,2.30
2023-05-13T15:13:57.186Z,2.70
2023-05-13T15:16:23.770Z,2.33
2023-05-13T15:18:50.838Z,2.42
2023-05-13T15:21:17.549Z,2.05
2023-05-13T15:23:44.173Z,2.55
2023-05-13T15:26:10.719Z,2.60
2023-05-13T15:28:37.868Z,2.75
2023-05-13T15:31:05.871Z,2.40
2023-05-13T15:33:32.859Z,2.92
2023-05-13T15:36:00.038Z,2.67
2023-05-13T15:38:27.427Z,2.55
2023-05-13T15:40:54.026Z,2.72
2023-05-13T15:43:20.823Z,2.50
2023-05-13T15:45:47.656Z,2.15
2023-05-13T15:48:14.251Z,2.90
2023-05-13T15:50:41.039Z,2.05
2023-05-13T15:53:08.116Z,2.50
2023-05-13T15:55:36.864Z,2.03
2023-05-13T15:58:03.550Z,2.25
2023-05-13T16:00:30.166Z,2.17
2023-05-13T16:02:56.678Z,2.40
2023-05-13T16:05:23.253Z,2.67
2023-05-13T16:07:49.985Z,2.67
2023-05-13T16:10:16.829Z,2.30
2023-05-13T16:12:43.382Z,1.88
2023-05-13T16:15:11.125Z,2.00
2023-05-13T16:17:37.887Z,2.47
2023-05-13T16:20:05.204Z,2.20
2023-05-13T16:22:33.765Z,2.22
2023-05-13T16:25:02.476Z,2.20
2023-05-13T16:27:29.378Z,2.22
2023-05-13T16:29:57.503Z,2.30
2023-05-13T16:32:24.763Z,3.35
2023-05-13T16:34:52.193Z,3.30
2023-05-13T16:37:19.291Z,2.58
2023-05-13T16:39:45.983Z,2.53
2023-05-13T16:42:12.570Z,3.22
2023-05-13T16:44:39.128Z,3.40
2023-05-13T16:47:11.083Z,3.10
2023-05-13T16:49:37.618Z,2.55
2023-05-13T16:52:04.828Z,3.30
2023-05-13T16:54:31.840Z,3.10
2023-05-13T16:56:58.693Z,3.13
2023-05-13T16:59:27.721Z,3.03
2023-05-13T17:01:54.504Z,3.20
2023-05-13T17:04:21.252Z,3.50
2023-05-13T17:06:47.959Z,2.80
2023-05-13T17:09:27.575Z,3.35
2023-05-13T17:11:54.703Z,2.95
2023-05-13T17:14:21.897Z,2.92
2023-05-13T17:16:48.940Z,2.83
2023-05-13T17:19:15.582Z,2.80
2023-05-13T17:21:42.173Z,3.20
2023-05-13T17:24:09.726Z,3.05
2023-05-13T17:26:38.583Z,2.38
2023-05-13T17:29:06.101Z,2.90
2023-05-13T17:31:33.709Z,3.08
2023-05-13T17:34:00.471Z,2.70
2023-05-13T17:36:27.663Z,2.70
2023-05-13T17:38:54.315Z,3.15
2023-05-13T17:41:21.780Z,3.03
2023-05-13T17:43:48.467Z,3.15
2023-05-13T17:46:15.035Z,2.83
2023-05-13T17:48:42.686Z,2.88
2023-05-13T17:51:11.115Z,2.83
2023-05-13T17:53:37.571Z,3.20
2023-05-13T17:56:04.627Z,2.80
2023-05-13T17:58:31.160Z,3.15
2023-05-13T18:00:57.697Z,3.10
2023-05-13T18:03:24.261Z,2.78
2023-05-13T18:05:51.090Z,3.10
2023-05-13T18:08:17.639Z,3.05
2023-05-13T18:10:44.265Z,3.20
2023-05-13T18:13:11.549Z,3.10
2023-05-13T18:15:38.167Z,3.10
2023-05-13T18:18:05.135Z,3.75
2023-05-13T18:20:32.786Z,4.00
2023-05-13T18:23:00.181Z,3.78
2023-05-13T18:25:26.744Z,3.92
2023-05-13T18:27:54.050Z,3.40
2023-05-13T18:30:21.173Z,3.40
2023-05-13T18:32:48.224Z,3.78
2023-05-13T18:35:16.077Z,3.20
2023-05-13T18:37:42.807Z,3.08
2023-05-13T18:40:09.811Z,3.17
2023-05-13T18:42:36.270Z,3.70
2023-05-13T18:45:02.799Z,4.47
2023-05-13T18:47:29.732Z,4.60
2023-05-13T18:49:56.325Z,4.40
2023-05-13T18:52:22.942Z,3.88
2023-05-13T18:54:51.146Z,3.92
2023-05-13T18:57:20.676Z,3.60
2023-05-13T18:59:47.204Z,3.75
2023-05-13T19:02:13.765Z,3.55
2023-05-13T19:04:40.867Z,5.90
2023-05-13T19:07:08.478Z,8.13
2023-05-13T19:09:36.024Z,5.63
2023-05-13T19:12:02.937Z,3.72
2023-05-13T19:14:29.407Z,3.72
2023-05-13T19:16:56.364Z,3.58
2023-05-13T19:19:24.161Z,3.35
2023-05-13T19:21:50.628Z,3.40
2023-05-13T19:24:17.087Z,3.10
2023-05-13T19:26:43.694Z,3.50
2023-05-13T19:29:10.305Z,3.40
2023-05-13T19:31:37.342Z,3.80
2023-05-13T19:34:03.942Z,3.28
2023-05-13T19:36:31.205Z,3.25
2023-05-13T19:38:57.714Z,3.50
2023-05-13T19:41:24.283Z,3.60
2023-05-13T19:43:50.830Z,3.65
2023-05-13T19:46:17.500Z,4.15
2023-05-13T19:48:44.075Z,4.22
2023-05-13T19:51:10.666Z,3.90
2023-05-13T19:53:37.541Z,4.80
2023-05-13T19:56:04.268Z,4.93
2023-05-13T19:58:30.768Z,5.07
2023-05-13T20:00:58.123Z,4.32
2023-05-13T20:03:24.663Z,4.63
2023-05-13T20:05:53.076Z,4.35
2023-05-13T20:08:20.852Z,4.28
2023-05-13T20:10:47.388Z,4.03
2023-05-13T20:13:13.883Z,4.60
2023-05-13T20:15:41.700Z,4.15
2023-05-13T20:18:08.414Z,4.82
2023-05-13T20:20:35.407Z,4.68
2023-05-13T20:23:01.969Z,4.55
2023-05-13T20:25:28.470Z,4.65
2023-05-13T20:27:55.018Z,4.05
2023-05-13T20:30:22.293Z,4.45
2023-05-13T20:32:49.043Z,4.07
2023-05-13T20:35:15.860Z,4.68
2023-05-13T20:37:43.151Z,4.18
2023-05-13T20:40:10.092Z,4.88
2023-05-13T20:42:36.588Z,4.93
2023-05-13T20:45:04.299Z,4.30
2023-05-13T20:47:31.277Z,4.82
2023-05-13T20:49:58.063Z,4.63
2023-05-13T20:52:25.091Z,4.22
2023-05-13T20:54:51.670Z,4.80
2023-05-13T20:57:18.523Z,4.35
2023-05-13T20:59:45.341Z,5.05
2023-05-13T21:02:11.975Z,4.65
2023-05-13T21:04:38.411Z,4.93
2023-05-13T21:07:06.789Z,4.30
2023-05-13T21:09:33.629Z,4.88
2023-05-13T21:12:00.264Z,4.97
2023-05-13T21:14:26.785Z,4.65
2023-05-13T21:16:53.383Z,4.85
2023-05-13T21:19:24.144Z,5.70
2023-05-13T21:21:51.148Z,5.90
2023-05-13T21:24:18.768Z,5.38
2023-05-13T21:26:46.149Z,4.90
2023-05-13T21:29:12.650Z,5.18
2023-05-13T21:31:42.566Z,5.80
2023-05-13T21:34:09.159Z,5.05
2023-05-13T21:36:38.848Z,5.47
2023-05-13T21:39:10.355Z,5.20
2023-05-13T21:41:37.094Z,5.20
2023-05-13T21:44:03.722Z,5.85
2023-05-13T21:46:30.406Z,5.10
2023-05-13T21:49:02.384Z,5.18
2023-05-13T21:51:29.214Z,5.28
2023-05-13T21:53:55.813Z,5.40
2023-05-13T21:56:22.554Z,5.18
2023-05-13T21:58:49.862Z,5.45
2023-05-13T22:01:16.698Z,5.57
2023-05-13T22:03:43.618Z,5.25
2023-05-13T22:06:10.483Z,5.65
2023-05-13T22:08:37.478Z,5.70
2023-05-13T22:11:04.044Z,5.72
2023-05-13T22:13:30.647Z,5.65
2023-05-13T22:15:57.101Z,5.18
2023-05-13T22:18:23.902Z,6.05
2023-05-13T22:20:51.326Z,6.10
2023-05-13T22:23:17.745Z,5.68
2023-05-13T22:25:44.357Z,5.75
2023-05-13T22:28:10.968Z,5.88
2023-05-13T22:30:37.408Z,6.00
2023-05-13T22:33:04.074Z,5.85
2023-05-13T22:35:31.903Z,6.13
2023-05-13T22:37:58.388Z,5.90
2023-05-13T22:40:25.105Z,6.75
2023-05-13T22:42:51.984Z,5.95
2023-05-13T22:45:18.684Z,6.30
2023-05-13T22:47:45.217Z,7.05
2023-05-13T22:50:12.449Z,7.30
2023-05-13T22:52:39.462Z,6.97
2023-05-13T22:55:07.054Z,7.40
2023-05-13T22:57:33.609Z,6.63
2023-05-13T23:00:00.220Z,7.28
2023-05-13T23:02:27.446Z,6.88
2023-05-13T23:04:53.933Z,8.48
2023-05-13T23:07:20.432Z,7.90
2023-05-13T23:09:46.957Z,7.80
2023-05-13T23:12:13.621Z,7.60
2023-05-13T23:14:40.768Z,6.63
2023-05-13T23:17:08.208Z,7.07
2023-05-13T23:19:35.465Z,6.13
2023-05-13T23:22:03.820Z,6.50
2023-05-13T23:24:30.711Z,6.15
2023-05-13T23:26:57.817Z,6.55
2023-05-13T23:29:27.681Z,6.38
2023-05-13T23:31:55.389Z,5.65
2023-05-13T23:34:22.186Z,5.50
2023-05-13T23:36:49.103Z,5.82
2023-05-13T23:39:15.795Z,5.35
2023-05-13T23:41:42.883Z,5.75
2023-05-13T23:44:09.642Z,5.45
2023-05-13T23:46:36.126Z,5.25
2023-05-13T23:49:02.937Z,5.95
2023-05-13T23:51:30.998Z,5.93
2023-05-13T23:53:57.737Z,6.20
2023-05-13T23:56:25.511Z,5.50
2023-05-13T23:58:51.990Z,6.00
